createdAt,value
2018-02-22T00:00:05.482Z,94.18
2018-02-22T00:05:03.703Z,93.99
2018-02-22T00:10:03.319Z,94.08
2018-02-22T00:15:02.818Z,93.99
2018-02-22T00:20:03.275Z,93.89
2018-02-22T00:25:03.774Z,93.61
2018-02-22T00:30:03.197Z,93.7
2018-02-22T00:35:03.679Z,93.61
2018-02-22T00:40:03.184Z,93.51
2018-02-22T00:45:03.629Z,93.42
2018-02-22T00:50:03.192Z,93.32
2018-02-22T00:55:03.685Z,93.13
2018-02-22T01:00:03.118Z,92.94
2018-02-22T01:05:03.311Z,93.23
2018-02-22T01:10:02.800Z,93.51
2018-02-22T01:15:03.197Z,93.09
2018-02-22T01:20:03.710Z,93.09
2018-02-22T01:25:03.152Z,93.09
2018-02-22T01:30:03.614Z,93.28
2018-02-22T01:35:03.134Z,92.99
2018-02-22T01:40:03.613Z,93.18
2018-02-22T01:45:03.015Z,92.8
2018-02-22T01:50:03.514Z,92.8
2018-02-22T01:55:02.989Z,92.8
2018-02-22T02:00:03.542Z,92.8
2018-02-22T02:05:03.018Z,92.71
2018-02-22T02:10:03.653Z,92.33
2018-02-22T02:15:03.203Z,92.52
2018-02-22T02:20:03.656Z,92.14
2018-02-22T02:25:03.050Z,92.24
2018-02-22T02:30:03.560Z,91.96
2018-02-22T02:35:02.980Z,91.96
2018-02-22T02:40:03.481Z,91.86
2018-02-22T02:45:02.899Z,91.77
2018-02-22T02:50:03.367Z,91.67
2018-02-22T02:55:02.751Z,91.58
2018-02-22T03:00:02.974Z,91.49
2018-02-22T03:05:03.465Z,91.39
2018-02-22T03:10:02.960Z,91.01
2018-02-22T03:15:03.411Z,91.01
2018-02-22T03:20:02.893Z,91.01
2018-02-22T03:25:03.371Z,90.82
2018-02-22T03:30:02.884Z,90.82
2018-02-22T03:35:03.407Z,90.73
2018-02-22T03:40:02.920Z,90.73
2018-02-22T03:45:03.401Z,90.73
2018-02-22T03:50:02.843Z,90.73
2018-02-22T03:55:03.412Z,90.64
2018-02-22T04:00:02.914Z,90.45
2018-02-22T04:05:03.353Z,89.97
2018-02-22T04:10:02.934Z,90.54
2018-02-22T04:15:03.333Z,90.26
2018-02-22T04:20:03.762Z,90.16
2018-02-22T04:25:03.191Z,90.16
2018-02-22T04:30:03.642Z,89.97
2018-02-22T04:35:03.087Z,89.97
2018-02-22T04:40:03.569Z,89.69
2018-02-22T04:45:03.024Z,89.69
2018-02-22T04:50:03.605Z,89.59
2018-02-22T04:55:03.000Z,89.5
2018-02-22T05:00:03.511Z,89.12
2018-02-22T05:05:02.916Z,89.22
2018-02-22T05:10:03.482Z,89.22
2018-02-22T05:15:02.897Z,89.12
2018-02-22T05:20:03.418Z,89.03
2018-02-22T05:25:03.812Z,89.03
2018-02-22T05:30:02.840Z,88.84
2018-02-22T05:35:03.304Z,88.75
2018-02-22T05:40:03.795Z,88.65
2018-02-22T05:45:03.247Z,88.75
2018-02-22T05:50:03.684Z,88.75
2018-02-22T05:55:03.081Z,88.56
2018-02-22T06:00:03.507Z,88.56
2018-02-22T06:05:02.960Z,88.37
2018-02-22T06:10:03.414Z,88.28
2018-02-22T06:15:02.895Z,88.28
2018-02-22T06:20:03.590Z,88.18
2018-02-22T06:25:03.111Z,88.37
2018-02-22T06:30:03.534Z,88.09
2018-02-22T06:35:03.029Z,88.18
2018-02-22T06:40:03.523Z,88.09
2018-02-22T06:45:03.291Z,88.09
2018-02-22T06:50:02.793Z,88.18
2018-02-22T06:55:03.254Z,88.09
2018-02-22T07:00:03.684Z,88.23
2018-02-22T07:05:03.242Z,89.26
2018-02-22T07:10:03.768Z,90.25
2018-02-22T07:15:08.280Z,92.61
2018-02-22T07:20:03.350Z,94.27
2018-02-22T07:25:02.785Z,96.02
2018-02-22T07:30:03.206Z,97.44
2018-02-22T07:35:03.845Z,99.19
2018-02-22T07:40:03.429Z,99.99
2018-02-22T07:45:02.925Z,99.99
2018-02-22T07:50:03.483Z,99.99
2018-02-22T07:55:02.872Z,99.99
2018-02-22T08:00:03.524Z,99.99
2018-02-22T08:05:03.080Z,99.99
2018-02-22T08:10:03.664Z,99.99
2018-02-22T08:15:03.108Z,99.99
2018-02-22T08:20:03.612Z,99.99
2018-02-22T08:25:03.433Z,99.99
2018-02-22T08:30:03.051Z,99.99
2018-02-22T08:35:03.589Z,99.99
2018-02-22T08:40:03.188Z,99.99
2018-02-22T08:45:03.603Z,99.99
2018-02-22T08:50:03.092Z,99.59
2018-02-22T08:55:03.569Z,92.85
2018-02-22T09:00:03.045Z,91.56
2018-02-22T09:05:03.503Z,91.32
2018-02-22T09:10:02.968Z,87.32
2018-02-22T09:15:03.475Z,84.19
2018-02-22T09:20:02.965Z,87.27
2018-02-22T09:25:03.414Z,83.22
2018-02-22T09:30:02.895Z,81.23
2018-02-22T09:35:03.383Z,80.27
2018-02-22T09:40:02.847Z,80.22
2018-02-22T09:45:03.293Z,75.68
2018-02-22T09:50:02.821Z,73.3
2018-02-22T09:55:03.291Z,75.68
2018-02-22T10:00:03.701Z,74.38
2018-02-22T10:05:03.099Z,75.15
2018-02-22T10:10:03.540Z,73.28
2018-02-22T10:15:02.946Z,70.89
2018-02-22T10:20:03.575Z,70.09
2018-02-22T10:25:02.997Z,71.23
2018-02-22T10:30:03.413Z,71.37
2018-02-22T10:35:02.937Z,69.93
2018-02-22T10:40:03.618Z,69.74
2018-02-22T10:45:03.239Z,68.88
2018-02-22T10:50:03.895Z,67.93
2018-02-22T10:55:03.325Z,68.92
2018-02-22T11:00:02.794Z,68.54
2018-02-22T11:05:03.240Z,66.72
2018-02-22T11:10:03.803Z,65.87
2018-02-22T11:15:03.237Z,64.5
2018-02-22T11:20:03.687Z,64.5
2018-02-22T11:25:03.057Z,65.48
2018-02-22T11:30:03.504Z,65.07
2018-02-22T11:35:02.942Z,67.05
2018-02-22T11:40:03.437Z,65.07
2018-02-22T11:45:02.875Z,63.6
2018-02-22T11:50:03.324Z,63.57
2018-02-22T11:55:03.733Z,63.76
2018-02-22T12:00:03.213Z,63.48
2018-02-22T12:05:03.687Z,62.91
2018-02-22T12:10:03.158Z,60.61
2018-02-22T12:15:03.604Z,61.19
2018-02-22T12:20:03.120Z,60.49
2018-02-22T12:25:03.687Z,61.63
2018-02-22T12:30:03.135Z,61.54
2018-02-22T12:35:03.587Z,62.21
2018-02-22T12:40:03.061Z,61.83
2018-02-22T12:45:03.462Z,62.08
2018-02-22T12:50:02.944Z,61.89
2018-02-22T12:55:03.468Z,61.8
2018-02-22T13:00:03.111Z,61.8
2018-02-22T13:05:03.559Z,62.62
2018-02-22T13:10:03.459Z,63.48
2018-02-22T13:15:02.962Z,64.15
2018-02-22T13:20:03.484Z,65.1
2018-02-22T13:25:02.906Z,64.24
2018-02-22T13:30:03.752Z,63.86
2018-02-22T13:35:03.313Z,64.34
2018-02-22T13:40:02.860Z,64.43
2018-02-22T13:45:03.357Z,64.24
2018-02-22T13:50:02.844Z,63.96
2018-02-22T13:55:03.328Z,64.87
2018-02-22T14:00:02.872Z,64.31
2018-02-22T14:05:03.358Z,64.12
2018-02-22T14:10:02.897Z,63.83
2018-02-22T14:15:03.367Z,64.08
2018-02-22T14:20:02.868Z,64.94
2018-02-22T14:25:03.384Z,65.03
2018-02-22T14:30:02.967Z,64.65
2018-02-22T14:35:03.623Z,63.89
2018-02-22T14:40:03.143Z,63.8
2018-02-22T14:45:03.676Z,64.94
2018-02-22T14:50:03.173Z,64.75
2018-02-22T14:55:03.606Z,64.05
2018-02-22T15:00:03.100Z,64.15
2018-02-22T15:05:03.629Z,65.19
2018-02-22T15:10:03.137Z,65.58
2018-02-22T15:15:03.775Z,65.29
2018-02-22T15:20:03.332Z,65.29
2018-02-22T15:25:03.774Z,65.19
2018-02-22T15:30:03.207Z,65.48
2018-02-22T15:35:03.779Z,64.53
2018-02-22T15:40:03.248Z,64.72
2018-02-22T15:45:03.741Z,64.9
2018-02-22T15:50:03.124Z,64.53
2018-02-22T15:55:03.710Z,65
2018-02-22T16:00:03.187Z,66.17
2018-02-22T16:05:03.603Z,67.57
2018-02-22T16:10:03.332Z,68.48
2018-02-22T16:15:02.809Z,70.25
2018-02-22T16:20:03.388Z,72.68
2018-02-22T16:25:02.890Z,74.07
2018-02-22T16:30:03.338Z,74.64
2018-02-22T16:35:03.187Z,75.55
2018-02-22T16:40:03.712Z,76.31
2018-02-22T16:45:03.160Z,77.25
2018-02-22T16:50:03.754Z,78.16
2018-02-22T16:55:03.285Z,79.39
2018-02-22T17:00:03.720Z,80.63
2018-02-22T17:05:03.177Z,82.29
2018-02-22T17:10:02.764Z,82.67
2018-02-22T17:15:03.207Z,83.43
2018-02-22T17:20:03.650Z,84.19
2018-02-22T17:25:03.228Z,85.32
2018-02-22T17:30:03.692Z,85.89
2018-02-22T17:35:03.214Z,87.93
2018-02-22T17:40:03.745Z,87.46
2018-02-22T17:45:03.221Z,88.49
2018-02-22T17:50:03.684Z,90.01
2018-02-22T17:55:03.166Z,93.42
2018-02-22T18:00:03.635Z,96.07
2018-02-22T18:05:03.128Z,98.1
2018-02-22T18:10:03.678Z,99.52
2018-02-22T18:15:03.187Z,99.8
2018-02-22T18:20:03.874Z,99.99
2018-02-22T18:25:03.353Z,99.99
2018-02-22T18:30:02.787Z,99.99
2018-02-22T18:35:03.255Z,99.99
2018-02-22T18:40:02.848Z,99.99
2018-02-22T18:45:03.519Z,99.99
2018-02-22T18:50:03.054Z,99.99
2018-02-22T18:55:03.545Z,99.99
2018-02-22T19:00:02.957Z,99.99
2018-02-22T19:05:03.442Z,99.99
2018-02-22T19:10:03.015Z,99.99
2018-02-22T19:15:03.487Z,99.99
2018-02-22T19:20:03.026Z,99.99
2018-02-22T19:25:03.592Z,99.99
2018-02-22T19:30:03.087Z,99.99
2018-02-22T19:35:03.658Z,99.99
2018-02-22T19:40:03.246Z,99.99
2018-02-22T19:45:03.747Z,99.99
2018-02-22T19:50:03.258Z,99.99
2018-02-22T19:55:03.823Z,99.99
2018-02-22T20:00:03.278Z,99.99
2018-02-22T20:05:04.056Z,99.99
2018-02-22T20:10:03.605Z,99.99
2018-02-22T20:15:03.112Z,99.99
2018-02-22T20:20:03.723Z,99.99
2018-02-22T20:25:03.220Z,99.99
2018-02-22T20:30:03.729Z,99.99
2018-02-22T20:35:03.350Z,99.99
2018-02-22T20:40:02.909Z,99.99
2018-02-22T20:45:03.441Z,99.99
2018-02-22T20:50:03.147Z,99.99
2018-02-22T20:55:03.620Z,99.99
2018-02-22T21:00:03.198Z,99.99
2018-02-22T21:05:03.664Z,99.89
2018-02-22T21:10:03.149Z,99.89
2018-02-22T21:15:03.578Z,99.42
2018-02-22T21:20:03.275Z,99.04
2018-02-22T21:25:03.743Z,98.19
2018-02-22T21:30:03.156Z,97.53
2018-02-22T21:35:03.623Z,96.78
2018-02-22T21:40:03.587Z,96.3
2018-02-22T21:45:03.130Z,95.54
2018-02-22T21:50:03.799Z,94.74
2018-02-22T21:55:03.194Z,93.99
2018-02-22T22:00:03.750Z,93.04
2018-02-22T22:05:03.207Z,91.82
2018-02-22T22:10:02.806Z,90.77
2018-02-22T22:15:03.237Z,90.96
2018-02-22T22:20:03.741Z,90.4
2018-02-22T22:25:03.363Z,89.64
2018-02-22T22:30:02.802Z,88.6
2018-02-22T22:35:03.408Z,88.23
2018-02-22T22:40:02.855Z,87.47
2018-02-22T22:45:03.226Z,87.47
2018-02-22T22:50:03.693Z,85.96
2018-02-22T22:55:03.105Z,85.01
2018-02-22T23:00:03.543Z,84.73
2018-02-22T23:05:03.676Z,85.2
2018-02-22T23:10:03.360Z,85.49
2018-02-22T23:15:02.770Z,85.01
2018-02-22T23:20:03.439Z,84.92
2018-02-22T23:25:02.856Z,84.82
2018-02-22T23:30:03.014Z,84.73
2018-02-22T23:35:03.517Z,84.35
2018-02-22T23:40:03.242Z,84.16
2018-02-22T23:45:03.813Z,83.78
2018-02-22T23:50:03.271Z,83.59
2018-02-22T23:55:03.707Z,83.4
